sensor_id;sensor_type;location;lat;lon;timestamp;P1;durP1;ratioP1;P2;durP2;ratioP2
18376;SDS011;9315;52.624;13.544;2023-06-14T00:01:35;2.53;;;1.60;;
18376;SDS011;9315;52.624;13.544;2023-06-14T00:04:04;2.00;;;1.33;;
18376;SDS011;9315;52.624;13.544;2023-06-14T00:06:32;3.03;;;1.50;;
18376;SDS011;9315;52.624;13.544;2023-06-14T00:09:00;4.40;;;1.57;;
18376;SDS011;9315;52.624;13.544;2023-06-14T00:11:27;2.17;;;1.30;;
18376;SDS011;9315;52.624;13.544;2023-06-14T00:13:57;4.93;;;1.70;;
18376;SDS011;9315;52.624;13.544;2023-06-14T00:16:24;2.63;;;1.30;;
18376;SDS011;9315;52.624;13.544;2023-06-14T00:18:53;3.43;;;1.70;;
18376;SDS011;9315;52.624;13.544;2023-06-14T00:21:20;2.20;;;1.50;;
18376;SDS011;9315;52.624;13.544;2023-06-14T00:23:48;4.07;;;1.30;;
18376;SDS011;9315;52.624;13.544;2023-06-14T00:26:15;2.60;;;1.60;;
18376;SDS011;9315;52.624;13.544;2023-06-14T00:28:42;5.63;;;1.47;;
18376;SDS011;9315;52.624;13.544;2023-06-14T00:31:09;2.73;;;1.40;;
18376;SDS011;9315;52.624;13.544;2023-06-14T00:33:37;4.97;;;1.47;;
18376;SDS011;9315;52.624;13.544;2023-06-14T00:36:04;2.47;;;1.77;;
18376;SDS011;9315;52.624;13.544;2023-06-14T00:38:33;3.33;;;1.67;;
18376;SDS011;9315;52.624;13.544;2023-06-14T00:41:00;5.13;;;1.80;;
18376;SDS011;9315;52.624;13.544;2023-06-14T00:43:27;4.03;;;1.60;;
18376;SDS011;9315;52.624;13.544;2023-06-14T00:45:54;2.10;;;1.60;;
18376;SDS011;9315;52.624;13.544;2023-06-14T00:48:22;3.50;;;1.90;;
18376;SDS011;9315;52.624;13.544;2023-06-14T00:50:51;4.50;;;1.60;;
18376;SDS011;9315;52.624;13.544;2023-06-14T00:53:19;2.50;;;1.90;;
18376;SDS011;9315;52.624;13.544;2023-06-14T00:55:51;3.03;;;2.00;;
18376;SDS011;9315;52.624;13.544;2023-06-14T00:58:18;3.93;;;1.80;;
18376;SDS011;9315;52.624;13.544;2023-06-14T01:00:48;2.23;;;1.70;;
18376;SDS011;9315;52.624;13.544;2023-06-14T01:03:17;7.13;;;2.20;;
18376;SDS011;9315;52.624;13.544;2023-06-14T01:05:50;5.73;;;2.03;;
18376;SDS011;9315;52.624;13.544;2023-06-14T01:08:37;4.00;;;2.17;;
18376;SDS011;9315;52.624;13.544;2023-06-14T01:11:50;6.53;;;1.97;;
18376;SDS011;9315;52.624;13.544;2023-06-14T01:14:47;3.20;;;2.00;;
18376;SDS011;9315;52.624;13.544;2023-06-14T01:17:16;3.70;;;2.27;;
18376;SDS011;9315;52.624;13.544;2023-06-14T01:19:43;7.03;;;2.43;;
18376;SDS011;9315;52.624;13.544;2023-06-14T01:22:12;2.97;;;2.13;;
18376;SDS011;9315;52.624;13.544;2023-06-14T01:24:39;4.27;;;2.07;;
18376;SDS011;9315;52.624;13.544;2023-06-14T01:27:11;3.00;;;2.13;;
18376;SDS011;9315;52.624;13.544;2023-06-14T01:29:39;3.27;;;2.07;;
18376;SDS011;9315;52.624;13.544;2023-06-14T01:32:12;5.17;;;2.50;;
18376;SDS011;9315;52.624;13.544;2023-06-14T01:34:39;3.33;;;1.97;;
18376;SDS011;9315;52.624;13.544;2023-06-14T01:37:07;7.10;;;2.40;;
18376;SDS011;9315;52.624;13.544;2023-06-14T01:39:35;5.87;;;2.40;;
18376;SDS011;9315;52.624;13.544;2023-06-14T01:42:02;6.33;;;2.50;;
18376;SDS011;9315;52.624;13.544;2023-06-14T01:44:32;5.97;;;2.40;;
18376;SDS011;9315;52.624;13.544;2023-06-14T01:47:00;6.40;;;2.57;;
18376;SDS011;9315;52.624;13.544;2023-06-14T01:49:27;6.07;;;2.27;;
18376;SDS011;9315;52.624;13.544;2023-06-14T01:51:54;5.67;;;2.50;;
18376;SDS011;9315;52.624;13.544;2023-06-14T01:54:22;3.57;;;2.53;;
18376;SDS011;9315;52.624;13.544;2023-06-14T01:56:51;5.83;;;2.43;;
18376;SDS011;9315;52.624;13.544;2023-06-14T01:59:19;5.53;;;1.93;;
18376;SDS011;9315;52.624;13.544;2023-06-14T02:01:46;4.70;;;2.70;;
18376;SDS011;9315;52.624;13.544;2023-06-14T02:04:13;4.50;;;2.40;;
18376;SDS011;9315;52.624;13.544;2023-06-14T02:06:40;8.97;;;2.57;;
18376;SDS011;9315;52.624;13.544;2023-06-14T02:09:07;4.53;;;3.17;;
18376;SDS011;9315;52.624;13.544;2023-06-14T02:11:35;3.10;;;2.20;;
18376;SDS011;9315;52.624;13.544;2023-06-14T02:14:02;5.03;;;3.03;;
18376;SDS011;9315;52.624;13.544;2023-06-14T02:16:32;5.60;;;2.73;;
18376;SDS011;9315;52.624;13.544;2023-06-14T02:19:02;4.63;;;2.67;;
18376;SDS011;9315;52.624;13.544;2023-06-14T02:21:30;5.70;;;2.80;;
18376;SDS011;9315;52.624;13.544;2023-06-14T02:23:57;3.43;;;2.73;;
18376;SDS011;9315;52.624;13.544;2023-06-14T02:26:24;4.60;;;2.77;;
18376;SDS011;9315;52.624;13.544;2023-06-14T02:28:55;5.03;;;2.70;;
18376;SDS011;9315;52.624;13.544;2023-06-14T02:31:22;5.80;;;2.70;;
18376;SDS011;9315;52.624;13.544;2023-06-14T02:33:49;6.87;;;3.07;;
18376;SDS011;9315;52.624;13.544;2023-06-14T02:36:16;4.03;;;2.47;;
18376;SDS011;9315;52.624;13.544;2023-06-14T02:38:44;5.87;;;2.90;;
18376;SDS011;9315;52.624;13.544;2023-06-14T02:41:11;8.53;;;2.83;;
18376;SDS011;9315;52.624;13.544;2023-06-14T02:43:38;3.70;;;2.73;;
18376;SDS011;9315;52.624;13.544;2023-06-14T02:46:05;9.20;;;3.03;;
18376;SDS011;9315;52.624;13.544;2023-06-14T02:48:33;7.67;;;3.43;;
18376;SDS011;9315;52.624;13.544;2023-06-14T02:51:00;3.83;;;2.97;;
18376;SDS011;9315;52.624;13.544;2023-06-14T02:53:27;5.20;;;3.63;;
18376;SDS011;9315;52.624;13.544;2023-06-14T02:55:54;5.27;;;2.90;;
18376;SDS011;9315;52.624;13.544;2023-06-14T02:58:22;5.47;;;3.53;;
18376;SDS011;9315;52.624;13.544;2023-06-14T03:00:51;14.10;;;3.50;;
18376;SDS011;9315;52.624;13.544;2023-06-14T03:03:21;4.70;;;3.50;;
18376;SDS011;9315;52.624;13.544;2023-06-14T03:05:50;6.40;;;3.00;;
18376;SDS011;9315;52.624;13.544;2023-06-14T03:08:21;4.83;;;2.97;;
18376;SDS011;9315;52.624;13.544;2023-06-14T03:10:53;5.07;;;2.90;;
18376;SDS011;9315;52.624;13.544;2023-06-14T03:13:22;7.50;;;3.43;;
18376;SDS011;9315;52.624;13.544;2023-06-14T03:15:49;6.97;;;3.10;;
18376;SDS011;9315;52.624;13.544;2023-06-14T03:18:16;5.20;;;3.00;;
18376;SDS011;9315;52.624;13.544;2023-06-14T03:20:44;9.20;;;2.77;;
18376;SDS011;9315;52.624;13.544;2023-06-14T03:23:12;4.80;;;3.00;;
18376;SDS011;9315;52.624;13.544;2023-06-14T03:25:39;8.83;;;3.50;;
18376;SDS011;9315;52.624;13.544;2023-06-14T03:28:08;9.23;;;3.67;;
18376;SDS011;9315;52.624;13.544;2023-06-14T03:30:35;6.20;;;3.07;;
18376;SDS011;9315;52.624;13.544;2023-06-14T03:33:07;6.57;;;3.40;;
18376;SDS011;9315;52.624;13.544;2023-06-14T03:35:35;3.87;;;3.10;;
18376;SDS011;9315;52.624;13.544;2023-06-14T03:38:02;6.23;;;3.53;;
18376;SDS011;9315;52.624;13.544;2023-06-14T03:40:30;6.77;;;3.00;;
18376;SDS011;9315;52.624;13.544;2023-06-14T03:42:57;6.33;;;3.50;;
18376;SDS011;9315;52.624;13.544;2023-06-14T03:45:24;5.23;;;3.30;;
18376;SDS011;9315;52.624;13.544;2023-06-14T03:47:52;4.50;;;3.30;;
18376;SDS011;9315;52.624;13.544;2023-06-14T03:50:21;8.20;;;3.50;;
18376;SDS011;9315;52.624;13.544;2023-06-14T03:52:48;5.87;;;3.60;;
18376;SDS011;9315;52.624;13.544;2023-06-14T03:55:16;10.57;;;3.63;;
18376;SDS011;9315;52.624;13.544;2023-06-14T03:57:46;5.77;;;3.53;;
18376;SDS011;9315;52.624;13.544;2023-06-14T04:00:14;7.20;;;3.60;;
18376;SDS011;9315;52.624;13.544;2023-06-14T04:02:41;5.90;;;3.23;;
18376;SDS011;9315;52.624;13.544;2023-06-14T04:05:10;5.10;;;3.57;;
18376;SDS011;9315;52.624;13.544;2023-06-14T04:07:37;5.60;;;3.57;;
18376;SDS011;9315;52.624;13.544;2023-06-14T04:10:11;6.30;;;3.30;;
18376;SDS011;9315;52.624;13.544;2023-06-14T04:12:39;5.10;;;3.30;;
18376;SDS011;9315;52.624;13.544;2023-06-14T04:15:09;6.63;;;3.90;;
18376;SDS011;9315;52.624;13.544;2023-06-14T04:17:48;11.53;;;3.73;;
18376;SDS011;9315;52.624;13.544;2023-06-14T04:20:15;6.20;;;3.73;;
18376;SDS011;9315;52.624;13.544;2023-06-14T04:22:43;9.33;;;3.90;;
18376;SDS011;9315;52.624;13.544;2023-06-14T04:25:11;7.80;;;4.10;;
18376;SDS011;9315;52.624;13.544;2023-06-14T04:27:39;3.97;;;3.40;;
18376;SDS011;9315;52.624;13.544;2023-06-14T04:30:08;7.50;;;3.77;;
18376;SDS011;9315;52.624;13.544;2023-06-14T04:32:35;4.90;;;3.40;;
18376;SDS011;9315;52.624;13.544;2023-06-14T04:35:06;5.03;;;3.60;;
18376;SDS011;9315;52.624;13.544;2023-06-14T04:37:34;7.40;;;3.60;;
18376;SDS011;9315;52.624;13.544;2023-06-14T04:40:06;5.60;;;3.40;;
18376;SDS011;9315;52.624;13.544;2023-06-14T04:42:38;6.30;;;3.47;;
18376;SDS011;9315;52.624;13.544;2023-06-14T04:45:07;10.57;;;3.77;;
18376;SDS011;9315;52.624;13.544;2023-06-14T04:47:35;7.90;;;3.67;;
18376;SDS011;9315;52.624;13.544;2023-06-14T04:50:04;9.70;;;3.97;;
18376;SDS011;9315;52.624;13.544;2023-06-14T04:52:31;6.83;;;3.67;;
18376;SDS011;9315;52.624;13.544;2023-06-14T04:54:59;8.13;;;3.30;;
18376;SDS011;9315;52.624;13.544;2023-06-14T04:57:26;6.30;;;3.67;;
18376;SDS011;9315;52.624;13.544;2023-06-14T04:59:53;6.73;;;3.80;;
18376;SDS011;9315;52.624;13.544;2023-06-14T05:02:22;8.33;;;3.60;;
18376;SDS011;9315;52.624;13.544;2023-06-14T05:04:51;10.63;;;3.47;;
18376;SDS011;9315;52.624;13.544;2023-06-14T05:07:18;9.97;;;4.03;;
18376;SDS011;9315;52.624;13.544;2023-06-14T05:09:46;4.77;;;3.17;;
18376;SDS011;9315;52.624;13.544;2023-06-14T05:12:13;7.30;;;3.30;;
18376;SDS011;9315;52.624;13.544;2023-06-14T05:14:44;8.37;;;4.30;;
18376;SDS011;9315;52.624;13.544;2023-06-14T05:17:12;7.20;;;3.80;;
18376;SDS011;9315;52.624;13.544;2023-06-14T05:19:39;5.73;;;3.27;;
18376;SDS011;9315;52.624;13.544;2023-06-14T05:22:07;11.60;;;3.60;;
18376;SDS011;9315;52.624;13.544;2023-06-14T05:24:34;9.27;;;3.90;;
18376;SDS011;9315;52.624;13.544;2023-06-14T05:27:01;4.57;;;3.33;;
18376;SDS011;9315;52.624;13.544;2023-06-14T05:29:29;7.00;;;3.37;;
18376;SDS011;9315;52.624;13.544;2023-06-14T05:31:57;6.20;;;3.63;;
18376;SDS011;9315;52.624;13.544;2023-06-14T05:34:24;13.57;;;3.70;;
18376;SDS011;9315;52.624;13.544;2023-06-14T05:36:51;7.97;;;3.43;;
18376;SDS011;9315;52.624;13.544;2023-06-14T05:39:18;5.07;;;3.67;;
18376;SDS011;9315;52.624;13.544;2023-06-14T05:41:46;10.57;;;4.03;;
18376;SDS011;9315;52.624;13.544;2023-06-14T05:44:16;6.67;;;3.20;;
18376;SDS011;9315;52.624;13.544;2023-06-14T05:46:43;7.03;;;3.30;;
18376;SDS011;9315;52.624;13.544;2023-06-14T05:49:10;8.70;;;3.23;;
18376;SDS011;9315;52.624;13.544;2023-06-14T05:51:38;9.50;;;3.87;;
18376;SDS011;9315;52.624;13.544;2023-06-14T05:54:05;13.63;;;3.50;;
18376;SDS011;9315;52.624;13.544;2023-06-14T05:56:33;11.93;;;3.93;;
18376;SDS011;9315;52.624;13.544;2023-06-14T05:59:01;7.13;;;3.70;;
18376;SDS011;9315;52.624;13.544;2023-06-14T06:01:28;7.17;;;3.57;;
18376;SDS011;9315;52.624;13.544;2023-06-14T06:03:56;7.53;;;3.27;;
18376;SDS011;9315;52.624;13.544;2023-06-14T06:06:24;7.43;;;3.20;;
18376;SDS011;9315;52.624;13.544;2023-06-14T06:08:51;11.37;;;3.20;;
18376;SDS011;9315;52.624;13.544;2023-06-14T06:11:18;6.83;;;3.50;;
18376;SDS011;9315;52.624;13.544;2023-06-14T06:13:46;5.60;;;3.47;;
18376;SDS011;9315;52.624;13.544;2023-06-14T06:16:13;7.00;;;3.13;;
18376;SDS011;9315;52.624;13.544;2023-06-14T06:18:41;6.97;;;3.33;;
18376;SDS011;9315;52.624;13.544;2023-06-14T06:21:10;8.30;;;3.00;;
18376;SDS011;9315;52.624;13.544;2023-06-14T06:23:37;11.90;;;3.20;;
18376;SDS011;9315;52.624;13.544;2023-06-14T06:26:05;10.50;;;3.50;;
18376;SDS011;9315;52.624;13.544;2023-06-14T06:28:32;9.67;;;3.53;;
18376;SDS011;9315;52.624;13.544;2023-06-14T06:30:59;8.17;;;3.30;;
18376;SDS011;9315;52.624;13.544;2023-06-14T06:33:30;12.53;;;3.30;;
18376;SDS011;9315;52.624;13.544;2023-06-14T06:35:57;8.53;;;2.90;;
18376;SDS011;9315;52.624;13.544;2023-06-14T06:38:24;6.37;;;3.03;;
18376;SDS011;9315;52.624;13.544;2023-06-14T06:40:51;13.17;;;3.17;;
18376;SDS011;9315;52.624;13.544;2023-06-14T06:43:20;7.13;;;3.00;;
18376;SDS011;9315;52.624;13.544;2023-06-14T06:45:47;4.93;;;2.77;;
18376;SDS011;9315;52.624;13.544;2023-06-14T06:48:15;11.43;;;3.00;;
18376;SDS011;9315;52.624;13.544;2023-06-14T06:50:43;9.93;;;2.80;;
18376;SDS011;9315;52.624;13.544;2023-06-14T06:53:10;8.93;;;3.07;;
18376;SDS011;9315;52.624;13.544;2023-06-14T06:55:41;10.97;;;3.70;;
18376;SDS011;9315;52.624;13.544;2023-06-14T06:58:09;8.70;;;3.10;;
18376;SDS011;9315;52.624;13.544;2023-06-14T07:00:36;9.40;;;3.53;;
18376;SDS011;9315;52.624;13.544;2023-06-14T07:03:03;8.47;;;3.03;;
18376;SDS011;9315;52.624;13.544;2023-06-14T07:05:31;8.47;;;3.20;;
18376;SDS011;9315;52.624;13.544;2023-06-14T07:07:59;6.87;;;2.77;;
18376;SDS011;9315;52.624;13.544;2023-06-14T07:10:26;7.73;;;3.40;;
18376;SDS011;9315;52.624;13.544;2023-06-14T07:12:53;9.60;;;2.93;;
18376;SDS011;9315;52.624;13.544;2023-06-14T07:15:21;9.30;;;3.10;;
18376;SDS011;9315;52.624;13.544;2023-06-14T07:17:50;7.13;;;3.10;;
18376;SDS011;9315;52.624;13.544;2023-06-14T07:20:19;10.07;;;3.20;;
18376;SDS011;9315;52.624;13.544;2023-06-14T07:22:48;9.60;;;3.33;;
18376;SDS011;9315;52.624;13.544;2023-06-14T07:25:15;10.10;;;3.13;;
18376;SDS011;9315;52.624;13.544;2023-06-14T07:27:46;9.07;;;3.17;;
18376;SDS011;9315;52.624;13.544;2023-06-14T07:30:15;8.00;;;3.23;;
18376;SDS011;9315;52.624;13.544;2023-06-14T07:32:44;6.20;;;2.73;;
18376;SDS011;9315;52.624;13.544;2023-06-14T07:35:11;12.70;;;3.83;;
18376;SDS011;9315;52.624;13.544;2023-06-14T07:37:39;7.27;;;3.03;;
18376;SDS011;9315;52.624;13.544;2023-06-14T07:40:07;6.93;;;3.27;;
18376;SDS011;9315;52.624;13.544;2023-06-14T07:42:36;7.43;;;3.33;;
18376;SDS011;9315;52.624;13.544;2023-06-14T07:45:04;8.43;;;2.97;;
18376;SDS011;9315;52.624;13.544;2023-06-14T07:47:32;6.97;;;3.03;;
18376;SDS011;9315;52.624;13.544;2023-06-14T07:50:00;9.03;;;3.00;;
18376;SDS011;9315;52.624;13.544;2023-06-14T07:52:29;9.07;;;3.20;;
18376;SDS011;9315;52.624;13.544;2023-06-14T07:54:57;13.20;;;3.20;;
18376;SDS011;9315;52.624;13.544;2023-06-14T07:57:24;4.37;;;2.90;;
18376;SDS011;9315;52.624;13.544;2023-06-14T07:59:51;4.73;;;2.77;;
18376;SDS011;9315;52.624;13.544;2023-06-14T08:02:18;9.37;;;2.90;;
18376;SDS011;9315;52.624;13.544;2023-06-14T08:04:46;11.40;;;3.88;;
18376;SDS011;9315;52.624;13.544;2023-06-14T08:07:14;3.97;;;2.87;;
18376;SDS011;9315;52.624;13.544;2023-06-14T08:09:41;8.63;;;2.97;;
18376;SDS011;9315;52.624;13.544;2023-06-14T08:12:08;8.10;;;2.87;;
18376;SDS011;9315;52.624;13.544;2023-06-14T08:14:36;6.43;;;3.08;;
18376;SDS011;9315;52.624;13.544;2023-06-14T08:17:06;8.90;;;2.93;;
18376;SDS011;9315;52.624;13.544;2023-06-14T08:19:34;5.47;;;2.67;;
18376;SDS011;9315;52.624;13.544;2023-06-14T08:22:04;6.50;;;2.53;;
18376;SDS011;9315;52.624;13.544;2023-06-14T08:24:32;7.17;;;2.43;;
18376;SDS011;9315;52.624;13.544;2023-06-14T08:26:59;7.97;;;2.80;;
18376;SDS011;9315;52.624;13.544;2023-06-14T08:29:27;7.17;;;2.83;;
18376;SDS011;9315;52.624;13.544;2023-06-14T08:31:57;4.13;;;2.80;;
18376;SDS011;9315;52.624;13.544;2023-06-14T08:34:24;12.88;;;2.67;;
18376;SDS011;9315;52.624;13.544;2023-06-14T08:36:52;3.53;;;2.30;;
18376;SDS011;9315;52.624;13.544;2023-06-14T08:39:20;7.72;;;2.65;;
18376;SDS011;9315;52.624;13.544;2023-06-14T08:41:48;5.43;;;2.43;;
18376;SDS011;9315;52.624;13.544;2023-06-14T08:44:16;4.88;;;2.55;;
18376;SDS011;9315;52.624;13.544;2023-06-14T08:46:44;8.63;;;2.67;;
18376;SDS011;9315;52.624;13.544;2023-06-14T08:49:13;6.95;;;2.33;;
18376;SDS011;9315;52.624;13.544;2023-06-14T08:51:44;10.93;;;2.47;;
18376;SDS011;9315;52.624;13.544;2023-06-14T08:54:13;7.18;;;2.28;;
18376;SDS011;9315;52.624;13.544;2023-06-14T08:56:41;5.93;;;2.47;;
18376;SDS011;9315;52.624;13.544;2023-06-14T08:59:10;6.18;;;2.47;;
18376;SDS011;9315;52.624;13.544;2023-06-14T09:01:38;10.10;;;2.65;;
18376;SDS011;9315;52.624;13.544;2023-06-14T09:04:11;3.97;;;2.10;;
18376;SDS011;9315;52.624;13.544;2023-06-14T09:06:39;7.90;;;1.98;;
18376;SDS011;9315;52.624;13.544;2023-06-14T09:09:06;3.50;;;1.92;;
18376;SDS011;9315;52.624;13.544;2023-06-14T09:11:34;6.03;;;2.28;;
18376;SDS011;9315;52.624;13.544;2023-06-14T09:14:02;5.80;;;2.42;;
18376;SDS011;9315;52.624;13.544;2023-06-14T09:16:31;7.88;;;2.35;;
18376;SDS011;9315;52.624;13.544;2023-06-14T09:18:59;6.50;;;2.20;;
18376;SDS011;9315;52.624;13.544;2023-06-14T09:21:28;3.90;;;2.05;;
18376;SDS011;9315;52.624;13.544;2023-06-14T09:24:03;7.82;;;2.35;;
18376;SDS011;9315;52.624;13.544;2023-06-14T09:26:32;12.77;;;2.35;;
18376;SDS011;9315;52.624;13.544;2023-06-14T09:28:59;6.85;;;2.30;;
18376;SDS011;9315;52.624;13.544;2023-06-14T09:31:27;5.05;;;2.45;;
18376;SDS011;9315;52.624;13.544;2023-06-14T09:33:58;4.18;;;2.15;;
18376;SDS011;9315;52.624;13.544;2023-06-14T09:36:30;4.07;;;2.03;;
18376;SDS011;9315;52.624;13.544;2023-06-14T09:38:59;7.40;;;2.28;;
18376;SDS011;9315;52.624;13.544;2023-06-14T09:41:33;3.70;;;2.28;;
18376;SDS011;9315;52.624;13.544;2023-06-14T09:44:09;3.72;;;1.90;;
18376;SDS011;9315;52.624;13.544;2023-06-14T09:46:46;7.63;;;2.40;;
18376;SDS011;9315;52.624;13.544;2023-06-14T09:49:14;4.22;;;2.33;;
18376;SDS011;9315;52.624;13.544;2023-06-14T09:51:43;3.80;;;2.30;;
18376;SDS011;9315;52.624;13.544;2023-06-14T09:54:15;4.25;;;2.45;;
18376;SDS011;9315;52.624;13.544;2023-06-14T09:56:48;4.28;;;2.60;;
18376;SDS011;9315;52.624;13.544;2023-06-14T09:59:19;5.90;;;2.13;;
18376;SDS011;9315;52.624;13.544;2023-06-14T10:01:56;7.60;;;2.88;;
18376;SDS011;9315;52.624;13.544;2023-06-14T10:04:27;6.30;;;2.63;;
18376;SDS011;9315;52.624;13.544;2023-06-14T10:06:57;7.05;;;2.40;;
18376;SDS011;9315;52.624;13.544;2023-06-14T10:09:26;11.32;;;2.83;;
18376;SDS011;9315;52.624;13.544;2023-06-14T10:11:58;9.35;;;2.55;;
18376;SDS011;9315;52.624;13.544;2023-06-14T10:14:25;5.43;;;2.70;;
18376;SDS011;9315;52.624;13.544;2023-06-14T10:20:19;3.25;;;2.55;;
18376;SDS011;9315;52.624;13.544;2023-06-14T10:23:08;6.80;;;2.75;;
18376;SDS011;9315;52.624;13.544;2023-06-14T10:25:43;6.45;;;2.95;;
18376;SDS011;9315;52.624;13.544;2023-06-14T10:28:17;3.85;;;2.55;;
18376;SDS011;9315;52.624;13.544;2023-06-14T10:41:34;6.55;;;2.88;;
18376;SDS011;9315;52.624;13.544;2023-06-14T10:47:00;4.15;;;2.20;;
18376;SDS011;9315;52.624;13.544;2023-06-14T10:49:37;11.23;;;2.60;;
18376;SDS011;9315;52.624;13.544;2023-06-14T10:52:09;4.55;;;2.22;;
18376;SDS011;9315;52.624;13.544;2023-06-14T10:57:30;8.23;;;2.88;;
18376;SDS011;9315;52.624;13.544;2023-06-14T11:00:17;7.07;;;2.58;;
18376;SDS011;9315;52.624;13.544;2023-06-14T11:06:15;11.85;;;2.47;;
18376;SDS011;9315;52.624;13.544;2023-06-14T11:12:04;9.95;;;2.22;;
18376;SDS011;9315;52.624;13.544;2023-06-14T11:14:39;9.27;;;2.55;;
18376;SDS011;9315;52.624;13.544;2023-06-14T11:17:06;5.20;;;2.38;;
18376;SDS011;9315;52.624;13.544;2023-06-14T11:19:34;6.78;;;2.60;;
18376;SDS011;9315;52.624;13.544;2023-06-14T11:22:02;4.68;;;2.55;;
18376;SDS011;9315;52.624;13.544;2023-06-14T11:24:29;10.85;;;2.40;;
18376;SDS011;9315;52.624;13.544;2023-06-14T11:26:59;5.93;;;2.35;;
18376;SDS011;9315;52.624;13.544;2023-06-14T11:29:28;8.20;;;2.40;;
18376;SDS011;9315;52.624;13.544;2023-06-14T11:31:56;8.32;;;2.25;;
18376;SDS011;9315;52.624;13.544;2023-06-14T11:34:24;6.32;;;2.50;;
18376;SDS011;9315;52.624;13.544;2023-06-14T11:36:51;6.05;;;2.08;;
18376;SDS011;9315;52.624;13.544;2023-06-14T11:39:23;8.77;;;2.30;;
18376;SDS011;9315;52.624;13.544;2023-06-14T11:41:52;4.65;;;2.00;;
18376;SDS011;9315;52.624;13.544;2023-06-14T11:44:21;6.55;;;2.15;;
18376;SDS011;9315;52.624;13.544;2023-06-14T11:46:48;5.18;;;2.25;;
18376;SDS011;9315;52.624;13.544;2023-06-14T11:49:16;8.00;;;1.80;;
18376;SDS011;9315;52.624;13.544;2023-06-14T11:51:44;5.63;;;2.22;;
18376;SDS011;9315;52.624;13.544;2023-06-14T11:54:12;5.07;;;2.42;;
18376;SDS011;9315;52.624;13.544;2023-06-14T11:56:42;6.50;;;2.00;;
18376;SDS011;9315;52.624;13.544;2023-06-14T11:59:10;3.15;;;2.20;;
18376;SDS011;9315;52.624;13.544;2023-06-14T12:01:42;5.88;;;1.83;;
18376;SDS011;9315;52.624;13.544;2023-06-14T12:04:10;8.95;;;2.60;;
18376;SDS011;9315;52.624;13.544;2023-06-14T12:06:38;6.80;;;2.13;;
18376;SDS011;9315;52.624;13.544;2023-06-14T12:09:06;4.93;;;2.28;;
18376;SDS011;9315;52.624;13.544;2023-06-14T12:11:40;6.75;;;1.98;;
18376;SDS011;9315;52.624;13.544;2023-06-14T12:14:08;10.25;;;2.30;;
18376;SDS011;9315;52.624;13.544;2023-06-14T12:16:37;3.85;;;1.92;;
18376;SDS011;9315;52.624;13.544;2023-06-14T12:19:14;13.05;;;2.35;;
18376;SDS011;9315;52.624;13.544;2023-06-14T12:21:46;5.75;;;2.22;;
18376;SDS011;9315;52.624;13.544;2023-06-14T12:24:15;3.10;;;2.45;;
18376;SDS011;9315;52.624;13.544;2023-06-14T12:26:43;9.57;;;2.45;;
18376;SDS011;9315;52.624;13.544;2023-06-14T12:29:11;5.05;;;2.30;;
18376;SDS011;9315;52.624;13.544;2023-06-14T12:31:39;2.50;;;2.08;;
18376;SDS011;9315;52.624;13.544;2023-06-14T12:34:07;4.95;;;2.20;;
18376;SDS011;9315;52.624;13.544;2023-06-14T12:36:35;4.18;;;2.30;;
18376;SDS011;9315;52.624;13.544;2023-06-14T12:39:08;6.30;;;2.03;;
18376;SDS011;9315;52.624;13.544;2023-06-14T12:41:35;4.45;;;2.08;;
18376;SDS011;9315;52.624;13.544;2023-06-14T12:44:05;6.40;;;1.95;;
18376;SDS011;9315;52.624;13.544;2023-06-14T12:46:33;7.18;;;1.88;;
18376;SDS011;9315;52.624;13.544;2023-06-14T12:49:01;7.13;;;1.98;;
18376;SDS011;9315;52.624;13.544;2023-06-14T12:51:28;3.78;;;1.77;;
18376;SDS011;9315;52.624;13.544;2023-06-14T12:53:55;5.68;;;1.80;;
18376;SDS011;9315;52.624;13.544;2023-06-14T12:56:23;7.80;;;2.03;;
18376;SDS011;9315;52.624;13.544;2023-06-14T12:58:50;4.75;;;1.75;;
18376;SDS011;9315;52.624;13.544;2023-06-14T13:01:17;4.65;;;2.20;;
18376;SDS011;9315;52.624;13.544;2023-06-14T13:03:46;4.68;;;1.83;;
18376;SDS011;9315;52.624;13.544;2023-06-14T13:06:16;11.43;;;1.98;;
18376;SDS011;9315;52.624;13.544;2023-06-14T13:08:43;3.00;;;1.60;;
18376;SDS011;9315;52.624;13.544;2023-06-14T13:11:11;2.90;;;1.83;;
18376;SDS011;9315;52.624;13.544;2023-06-14T13:13:38;3.70;;;1.83;;
18376;SDS011;9315;52.624;13.544;2023-06-14T13:16:05;4.70;;;1.80;;
18376;SDS011;9315;52.624;13.544;2023-06-14T13:18:32;3.45;;;1.88;;
18376;SDS011;9315;52.624;13.544;2023-06-14T13:21:00;8.23;;;1.85;;
18376;SDS011;9315;52.624;13.544;2023-06-14T13:23:27;5.43;;;1.92;;
18376;SDS011;9315;52.624;13.544;2023-06-14T13:25:54;3.08;;;1.67;;
18376;SDS011;9315;52.624;13.544;2023-06-14T13:28:22;4.00;;;1.80;;
18376;SDS011;9315;52.624;13.544;2023-06-14T13:30:49;3.30;;;1.80;;
18376;SDS011;9315;52.624;13.544;2023-06-14T13:33:18;7.45;;;2.10;;
18376;SDS011;9315;52.624;13.544;2023-06-14T13:35:53;5.03;;;1.95;;
18376;SDS011;9315;52.624;13.544;2023-06-14T13:38:20;6.07;;;1.80;;
18376;SDS011;9315;52.624;13.544;2023-06-14T13:40:48;3.72;;;1.52;;
18376;SDS011;9315;52.624;13.544;2023-06-14T13:43:21;7.43;;;2.17;;
18376;SDS011;9315;52.624;13.544;2023-06-14T13:45:49;6.07;;;1.60;;
18376;SDS011;9315;52.624;13.544;2023-06-14T13:48:33;4.40;;;1.63;;
18376;SDS011;9315;52.624;13.544;2023-06-14T13:51:20;5.57;;;1.90;;
18376;SDS011;9315;52.624;13.544;2023-06-14T13:54:06;3.33;;;1.67;;
18376;SDS011;9315;52.624;13.544;2023-06-14T13:56:51;8.20;;;2.00;;
18376;SDS011;9315;52.624;13.544;2023-06-14T13:59:38;3.85;;;1.77;;
18376;SDS011;9315;52.624;13.544;2023-06-14T14:02:24;7.93;;;2.25;;
18376;SDS011;9315;52.624;13.544;2023-06-14T14:05:09;8.45;;;2.30;;
18376;SDS011;9315;52.624;13.544;2023-06-14T14:07:54;6.07;;;1.85;;
18376;SDS011;9315;52.624;13.544;2023-06-14T14:10:40;4.57;;;2.15;;
18376;SDS011;9315;52.624;13.544;2023-06-14T14:13:25;6.80;;;1.92;;
18376;SDS011;9315;52.624;13.544;2023-06-14T14:16:10;5.03;;;2.08;;
18376;SDS011;9315;52.624;13.544;2023-06-14T14:18:55;13.45;;;2.08;;
18376;SDS011;9315;52.624;13.544;2023-06-14T14:21:39;4.45;;;1.65;;
18376;SDS011;9315;52.624;13.544;2023-06-14T14:24:24;5.68;;;1.70;;
18376;SDS011;9315;52.624;13.544;2023-06-14T14:27:11;8.07;;;1.98;;
18376;SDS011;9315;52.624;13.544;2023-06-14T14:29:56;5.40;;;2.13;;
18376;SDS011;9315;52.624;13.544;2023-06-14T14:32:26;5.97;;;2.22;;
18376;SDS011;9315;52.624;13.544;2023-06-14T14:34:54;5.15;;;1.85;;
18376;SDS011;9315;52.624;13.544;2023-06-14T14:37:21;5.15;;;1.92;;
18376;SDS011;9315;52.624;13.544;2023-06-14T14:39:48;6.28;;;1.63;;
18376;SDS011;9315;52.624;13.544;2023-06-14T14:42:15;3.92;;;1.90;;
18376;SDS011;9315;52.624;13.544;2023-06-14T14:44:43;5.97;;;2.08;;
18376;SDS011;9315;52.624;13.544;2023-06-14T14:47:10;7.05;;;2.05;;
18376;SDS011;9315;52.624;13.544;2023-06-14T14:49:38;3.17;;;1.83;;
18376;SDS011;9315;52.624;13.544;2023-06-14T14:52:05;4.32;;;1.85;;
18376;SDS011;9315;52.624;13.544;2023-06-14T14:54:48;9.93;;;2.20;;
18376;SDS011;9315;52.624;13.544;2023-06-14T14:57:16;4.57;;;1.90;;
18376;SDS011;9315;52.624;13.544;2023-06-14T14:59:43;11.25;;;1.83;;
18376;SDS011;9315;52.624;13.544;2023-06-14T15:02:10;4.30;;;1.80;;
18376;SDS011;9315;52.624;13.544;2023-06-14T15:04:39;14.05;;;2.50;;
18376;SDS011;9315;52.624;13.544;2023-06-14T15:07:06;6.65;;;2.10;;
18376;SDS011;9315;52.624;13.544;2023-06-14T15:09:33;7.50;;;2.45;;
18376;SDS011;9315;52.624;13.544;2023-06-14T15:12:00;12.98;;;2.08;;
18376;SDS011;9315;52.624;13.544;2023-06-14T15:14:28;5.75;;;2.03;;
18376;SDS011;9315;52.624;13.544;2023-06-14T15:16:56;3.00;;;2.03;;
18376;SDS011;9315;52.624;13.544;2023-06-14T15:19:24;2.30;;;1.58;;
18376;SDS011;9315;52.624;13.544;2023-06-14T15:21:52;2.88;;;1.63;;
18376;SDS011;9315;52.624;13.544;2023-06-14T15:24:19;1.73;;;1.60;;
18376;SDS011;9315;52.624;13.544;2023-06-14T15:27:07;4.20;;;1.60;;